sensor_id;sensor_type;location;lat;lon;timestamp;temperature;humidity
60860;DHT22;46694;54.382;9.708;2023-03-01T00:01:50;3.50;99.90
60860;DHT22;46694;54.382;9.708;2023-03-01T00:04:30;3.50;99.90
60860;DHT22;46694;54.382;9.708;2023-03-01T00:07:09;3.50;99.90
60860;DHT22;46694;54.382;9.708;2023-03-01T00:09:49;3.40;99.90
60860;DHT22;46694;54.382;9.708;2023-03-01T00:12:29;3.40;99.90
60860;DHT22;46694;54.382;9.708;2023-03-01T00:15:08;3.40;99.90
60860;DHT22;46694;54.382;9.708;2023-03-01T00:21:30;3.30;99.90
60860;DHT22;46694;54.382;9.708;2023-03-01T00:24:10;3.30;99.90
60860;DHT22;46694;54.382;9.708;2023-03-01T00:26:53;3.20;99.90
60860;DHT22;46694;54.382;9.708;2023-03-01T00:29:34;3.20;99.90
60860;DHT22;46694;54.382;9.708;2023-03-01T00:32:13;3.10;99.90
60860;DHT22;46694;54.382;9.708;2023-03-01T00:34:53;3.10;99.90
60860;DHT22;46694;54.382;9.708;2023-03-01T00:37:35;3.00;99.90
60860;DHT22;46694;54.382;9.708;2023-03-01T00:40:15;3.10;99.90
60860;DHT22;46694;54.382;9.708;2023-03-01T00:42:55;3.10;99.90
60860;DHT22;46694;54.382;9.708;2023-03-01T00:45:35;3.10;99.90
60860;DHT22;46694;54.382;9.708;2023-03-01T00:48:14;3.10;99.90
60860;DHT22;46694;54.382;9.708;2023-03-01T00:50:54;3.10;99.90
60860;DHT22;46694;54.382;9.708;2023-03-01T00:53:34;3.10;99.90
60860;DHT22;46694;54.382;9.708;2023-03-01T00:56:14;3.20;99.90
60860;DHT22;46694;54.382;9.708;2023-03-01T00:58:54;3.10;99.90
60860;DHT22;46694;54.382;9.708;2023-03-01T01:01:33;3.20;99.90
60860;DHT22;46694;54.382;9.708;2023-03-01T01:04:13;3.20;99.90
60860;DHT22;46694;54.382;9.708;2023-03-01T01:06:53;3.10;99.90
60860;DHT22;46694;54.382;9.708;2023-03-01T01:09:32;3.00;99.90
60860;DHT22;46694;54.382;9.708;2023-03-01T01:12:12;3.00;99.90
60860;DHT22;46694;54.382;9.708;2023-03-01T01:14:51;3.00;99.90
60860;DHT22;46694;54.382;9.708;2023-03-01T01:17:31;3.00;99.90
60860;DHT22;46694;54.382;9.708;2023-03-01T01:20:11;2.90;99.90
60860;DHT22;46694;54.382;9.708;2023-03-01T01:22:51;2.90;99.90
60860;DHT22;46694;54.382;9.708;2023-03-01T01:25:30;2.90;99.90
60860;DHT22;46694;54.382;9.708;2023-03-01T01:28:14;2.90;99.90
60860;DHT22;46694;54.382;9.708;2023-03-01T01:30:53;2.80;99.90
60860;DHT22;46694;54.382;9.708;2023-03-01T01:33:33;2.80;99.90
60860;DHT22;46694;54.382;9.708;2023-03-01T01:36:13;2.80;99.90
60860;DHT22;46694;54.382;9.708;2023-03-01T01:38:53;2.70;99.90
60860;DHT22;46694;54.382;9.708;2023-03-01T01:41:33;2.70;99.90
60860;DHT22;46694;54.382;9.708;2023-03-01T01:44:23;2.70;99.90
60860;DHT22;46694;54.382;9.708;2023-03-01T01:47:14;2.70;99.90
60860;DHT22;46694;54.382;9.708;2023-03-01T01:49:56;2.70;99.90
60860;DHT22;46694;54.382;9.708;2023-03-01T01:52:36;2.70;99.90
60860;DHT22;46694;54.382;9.708;2023-03-01T01:55:20;2.70;99.90
60860;DHT22;46694;54.382;9.708;2023-03-01T01:58:04;2.70;99.90
60860;DHT22;46694;54.382;9.708;2023-03-01T02:00:47;2.70;99.90
60860;DHT22;46694;54.382;9.708;2023-03-01T02:03:32;2.60;99.90
60860;DHT22;46694;54.382;9.708;2023-03-01T02:06:45;2.60;99.90
60860;DHT22;46694;54.382;9.708;2023-03-01T02:09:30;2.50;99.90
60860;DHT22;46694;54.382;9.708;2023-03-01T02:12:13;2.50;99.90
60860;DHT22;46694;54.382;9.708;2023-03-01T02:14:54;2.50;99.90
60860;DHT22;46694;54.382;9.708;2023-03-01T02:17:33;2.40;99.90
60860;DHT22;46694;54.382;9.708;2023-03-01T02:20:25;2.50;99.90
60860;DHT22;46694;54.382;9.708;2023-03-01T02:23:07;2.50;99.90
60860;DHT22;46694;54.382;9.708;2023-03-01T02:25:58;2.50;99.90
60860;DHT22;46694;54.382;9.708;2023-03-01T02:28:40;2.50;99.90
60860;DHT22;46694;54.382;9.708;2023-03-01T02:31:22;2.40;99.90
60860;DHT22;46694;54.382;9.708;2023-03-01T02:34:23;2.40;99.90
60860;DHT22;46694;54.382;9.708;2023-03-01T02:37:13;2.40;99.90
60860;DHT22;46694;54.382;9.708;2023-03-01T02:39:59;2.40;99.90
60860;DHT22;46694;54.382;9.708;2023-03-01T02:42:50;2.30;99.90
60860;DHT22;46694;54.382;9.708;2023-03-01T02:45:31;2.30;99.90
60860;DHT22;46694;54.382;9.708;2023-03-01T02:48:10;2.30;99.90
60860;DHT22;46694;54.382;9.708;2023-03-01T02:57:05;2.30;99.90
60860;DHT22;46694;54.382;9.708;2023-03-01T02:59:45;2.20;99.90
60860;DHT22;46694;54.382;9.708;2023-03-01T03:02:27;2.20;99.90
60860;DHT22;46694;54.382;9.708;2023-03-01T03:05:23;2.20;99.90
60860;DHT22;46694;54.382;9.708;2023-03-01T03:08:04;2.20;99.90
60860;DHT22;46694;54.382;9.708;2023-03-01T03:10:44;2.20;99.90
60860;DHT22;46694;54.382;9.708;2023-03-01T03:13:24;2.20;99.90
60860;DHT22;46694;54.382;9.708;2023-03-01T03:16:07;2.10;99.90
60860;DHT22;46694;54.382;9.708;2023-03-01T03:18:47;2.10;99.90
60860;DHT22;46694;54.382;9.708;2023-03-01T03:21:27;2.10;99.90
60860;DHT22;46694;54.382;9.708;2023-03-01T03:24:06;2.10;99.90
60860;DHT22;46694;54.382;9.708;2023-03-01T03:26:46;2.10;99.90
60860;DHT22;46694;54.382;9.708;2023-03-01T03:29:25;2.00;99.90
60860;DHT22;46694;54.382;9.708;2023-03-01T03:32:05;2.00;99.90
60860;DHT22;46694;54.382;9.708;2023-03-01T03:34:44;2.00;99.90
60860;DHT22;46694;54.382;9.708;2023-03-01T03:37:24;2.00;99.90
60860;DHT22;46694;54.382;9.708;2023-03-01T03:40:22;1.90;99.90
60860;DHT22;46694;54.382;9.708;2023-03-01T03:43:21;1.90;99.90
60860;DHT22;46694;54.382;9.708;2023-03-01T03:46:02;2.00;99.90
60860;DHT22;46694;54.382;9.708;2023-03-01T03:48:45;2.00;99.90
60860;DHT22;46694;54.382;9.708;2023-03-01T03:51:25;1.90;99.90
60860;DHT22;46694;54.382;9.708;2023-03-01T03:54:20;2.00;99.90
60860;DHT22;46694;54.382;9.708;2023-03-01T03:56:59;1.90;99.90
60860;DHT22;46694;54.382;9.708;2023-03-01T03:59:39;1.90;99.90
60860;DHT22;46694;54.382;9.708;2023-03-01T04:02:18;1.90;99.90
60860;DHT22;46694;54.382;9.708;2023-03-01T04:05:01;1.90;99.90
60860;DHT22;46694;54.382;9.708;2023-03-01T04:07:41;1.90;99.90
60860;DHT22;46694;54.382;9.708;2023-03-01T04:10:21;1.90;99.90
60860;DHT22;46694;54.382;9.708;2023-03-01T04:13:01;1.90;99.90
60860;DHT22;46694;54.382;9.708;2023-03-01T04:15:40;1.90;99.90
60860;DHT22;46694;54.382;9.708;2023-03-01T04:18:24;1.80;99.90
60860;DHT22;46694;54.382;9.708;2023-03-01T04:21:04;1.80;99.90
60860;DHT22;46694;54.382;9.708;2023-03-01T04:23:44;1.70;99.90
60860;DHT22;46694;54.382;9.708;2023-03-01T04:26:23;1.70;99.90
60860;DHT22;46694;54.382;9.708;2023-03-01T04:29:03;1.60;99.90
60860;DHT22;46694;54.382;9.708;2023-03-01T04:31:43;1.60;99.90
60860;DHT22;46694;54.382;9.708;2023-03-01T04:34:23;1.60;99.90
60860;DHT22;46694;54.382;9.708;2023-03-01T04:37:02;1.60;99.90
60860;DHT22;46694;54.382;9.708;2023-03-01T04:39:41;1.60;99.90
60860;DHT22;46694;54.382;9.708;2023-03-01T04:42:26;1.60;99.90
60860;DHT22;46694;54.382;9.708;2023-03-01T04:45:06;1.60;99.90
60860;DHT22;46694;54.382;9.708;2023-03-01T04:47:52;1.60;99.90
60860;DHT22;46694;54.382;9.708;2023-03-01T04:50:32;1.60;99.90
60860;DHT22;46694;54.382;9.708;2023-03-01T04:53:12;1.60;99.90
60860;DHT22;46694;54.382;9.708;2023-03-01T04:55:51;1.60;99.90
60860;DHT22;46694;54.382;9.708;2023-03-01T04:58:31;1.60;99.90
60860;DHT22;46694;54.382;9.708;2023-03-01T05:01:19;1.60;99.90
60860;DHT22;46694;54.382;9.708;2023-03-01T05:04:00;1.60;99.90
60860;DHT22;46694;54.382;9.708;2023-03-01T05:06:42;1.60;99.90
60860;DHT22;46694;54.382;9.708;2023-03-01T05:09:22;1.60;99.90
60860;DHT22;46694;54.382;9.708;2023-03-01T05:12:01;1.60;99.90
60860;DHT22;46694;54.382;9.708;2023-03-01T05:14:41;1.60;99.90
60860;DHT22;46694;54.382;9.708;2023-03-01T05:17:21;1.60;99.90
60860;DHT22;46694;54.382;9.708;2023-03-01T05:20:00;1.60;99.90
60860;DHT22;46694;54.382;9.708;2023-03-01T05:22:41;1.60;99.90
60860;DHT22;46694;54.382;9.708;2023-03-01T05:25:20;1.60;99.90
60860;DHT22;46694;54.382;9.708;2023-03-01T05:28:02;1.60;99.90
60860;DHT22;46694;54.382;9.708;2023-03-01T05:30:46;1.60;99.90
60860;DHT22;46694;54.382;9.708;2023-03-01T05:33:26;1.60;99.90
60860;DHT22;46694;54.382;9.708;2023-03-01T05:36:08;1.50;99.90
60860;DHT22;46694;54.382;9.708;2023-03-01T05:38:48;1.50;99.90
60860;DHT22;46694;54.382;9.708;2023-03-01T05:41:28;1.50;99.90
60860;DHT22;46694;54.382;9.708;2023-03-01T05:44:08;1.40;99.90
60860;DHT22;46694;54.382;9.708;2023-03-01T05:46:47;1.40;99.90
60860;DHT22;46694;54.382;9.708;2023-03-01T05:49:27;1.40;99.90
60860;DHT22;46694;54.382;9.708;2023-03-01T05:52:07;1.40;99.90
60860;DHT22;46694;54.382;9.708;2023-03-01T05:54:46;1.40;99.90
60860;DHT22;46694;54.382;9.708;2023-03-01T05:57:28;1.40;99.90
60860;DHT22;46694;54.382;9.708;2023-03-01T06:00:09;1.40;99.90
60860;DHT22;46694;54.382;9.708;2023-03-01T06:02:49;1.40;99.90
60860;DHT22;46694;54.382;9.708;2023-03-01T06:05:31;1.40;99.90
60860;DHT22;46694;54.382;9.708;2023-03-01T06:08:11;1.30;99.90
60860;DHT22;46694;54.382;9.708;2023-03-01T06:10:51;1.30;99.90
60860;DHT22;46694;54.382;9.708;2023-03-01T06:13:30;1.30;99.90
60860;DHT22;46694;54.382;9.708;2023-03-01T06:16:10;1.30;99.90
60860;DHT22;46694;54.382;9.708;2023-03-01T06:18:49;1.40;99.90
60860;DHT22;46694;54.382;9.708;2023-03-01T06:21:29;1.30;99.90
60860;DHT22;46694;54.382;9.708;2023-03-01T06:24:08;1.40;99.90
60860;DHT22;46694;54.382;9.708;2023-03-01T06:26:48;1.40;99.90
60860;DHT22;46694;54.382;9.708;2023-03-01T06:29:27;1.40;99.90
60860;DHT22;46694;54.382;9.708;2023-03-01T06:32:07;1.30;99.90
60860;DHT22;46694;54.382;9.708;2023-03-01T06:34:46;1.30;99.90
60860;DHT22;46694;54.382;9.708;2023-03-01T06:37:26;1.40;99.90
60860;DHT22;46694;54.382;9.708;2023-03-01T06:40:07;1.40;99.90
60860;DHT22;46694;54.382;9.708;2023-03-01T06:42:49;1.40;99.90
60860;DHT22;46694;54.382;9.708;2023-03-01T06:45:29;1.40;99.90
60860;DHT22;46694;54.382;9.708;2023-03-01T06:48:08;1.50;99.90
60860;DHT22;46694;54.382;9.708;2023-03-01T06:50:48;1.50;99.90
60860;DHT22;46694;54.382;9.708;2023-03-01T06:53:28;1.50;99.90
60860;DHT22;46694;54.382;9.708;2023-03-01T06:56:08;1.50;99.90
60860;DHT22;46694;54.382;9.708;2023-03-01T06:58:47;1.50;99.90
60860;DHT22;46694;54.382;9.708;2023-03-01T07:01:27;1.50;99.90
60860;DHT22;46694;54.382;9.708;2023-03-01T07:04:06;1.50;99.90
60860;DHT22;46694;54.382;9.708;2023-03-01T07:06:46;1.50;99.90
60860;DHT22;46694;54.382;9.708;2023-03-01T07:09:33;1.60;99.90
60860;DHT22;46694;54.382;9.708;2023-03-01T07:12:12;1.60;99.90
60860;DHT22;46694;54.382;9.708;2023-03-01T07:14:52;1.60;99.90
60860;DHT22;46694;54.382;9.708;2023-03-01T07:17:31;1.60;99.90
60860;DHT22;46694;54.382;9.708;2023-03-01T07:20:11;1.60;99.90
60860;DHT22;46694;54.382;9.708;2023-03-01T07:22:52;1.70;99.90
60860;DHT22;46694;54.382;9.708;2023-03-01T07:25:32;1.80;99.90
60860;DHT22;46694;54.382;9.708;2023-03-01T07:28:12;1.80;99.90
60860;DHT22;46694;54.382;9.708;2023-03-01T07:30:52;2.00;99.90
60860;DHT22;46694;54.382;9.708;2023-03-01T07:33:32;2.10;99.90
60860;DHT22;46694;54.382;9.708;2023-03-01T07:36:11;2.10;99.90
60860;DHT22;46694;54.382;9.708;2023-03-01T07:38:51;2.00;99.90
60860;DHT22;46694;54.382;9.708;2023-03-01T07:41:30;2.00;99.90
60860;DHT22;46694;54.382;9.708;2023-03-01T07:44:10;1.90;99.90
60860;DHT22;46694;54.382;9.708;2023-03-01T07:46:50;1.90;99.90
60860;DHT22;46694;54.382;9.708;2023-03-01T07:49:31;1.90;99.90
60860;DHT22;46694;54.382;9.708;2023-03-01T07:52:11;1.90;99.90
60860;DHT22;46694;54.382;9.708;2023-03-01T07:54:51;1.90;99.90
60860;DHT22;46694;54.382;9.708;2023-03-01T07:57:30;1.90;99.90
60860;DHT22;46694;54.382;9.708;2023-03-01T08:00:11;1.90;99.90
60860;DHT22;46694;54.382;9.708;2023-03-01T08:02:51;1.90;99.90
60860;DHT22;46694;54.382;9.708;2023-03-01T08:05:31;1.90;99.90
60860;DHT22;46694;54.382;9.708;2023-03-01T08:08:11;2.00;99.90
60860;DHT22;46694;54.382;9.708;2023-03-01T08:10:51;2.10;99.90
60860;DHT22;46694;54.382;9.708;2023-03-01T08:13:30;2.10;99.90
60860;DHT22;46694;54.382;9.708;2023-03-01T08:16:13;2.20;99.90
60860;DHT22;46694;54.382;9.708;2023-03-01T08:18:53;2.30;99.90
60860;DHT22;46694;54.382;9.708;2023-03-01T08:21:35;2.30;99.90
60860;DHT22;46694;54.382;9.708;2023-03-01T08:24:15;2.40;99.90
60860;DHT22;46694;54.382;9.708;2023-03-01T08:26:55;2.40;99.90
60860;DHT22;46694;54.382;9.708;2023-03-01T08:29:35;2.40;99.90
60860;DHT22;46694;54.382;9.708;2023-03-01T08:32:14;2.50;99.90
60860;DHT22;46694;54.382;9.708;2023-03-01T08:34:54;2.50;99.90
60860;DHT22;46694;54.382;9.708;2023-03-01T08:37:33;2.60;99.90
60860;DHT22;46694;54.382;9.708;2023-03-01T08:40:14;2.70;99.90
60860;DHT22;46694;54.382;9.708;2023-03-01T08:42:53;2.80;99.90
60860;DHT22;46694;54.382;9.708;2023-03-01T08:45:33;2.90;99.90
60860;DHT22;46694;54.382;9.708;2023-03-01T08:48:12;2.90;99.90
60860;DHT22;46694;54.382;9.708;2023-03-01T08:50:52;3.00;99.90
60860;DHT22;46694;54.382;9.708;2023-03-01T08:53:31;3.10;99.90
60860;DHT22;46694;54.382;9.708;2023-03-01T08:56:11;3.20;99.90
60860;DHT22;46694;54.382;9.708;2023-03-01T08:58:51;3.30;99.90
60860;DHT22;46694;54.382;9.708;2023-03-01T09:01:31;3.40;99.90
60860;DHT22;46694;54.382;9.708;2023-03-01T09:04:11;3.50;99.90
60860;DHT22;46694;54.382;9.708;2023-03-01T09:06:51;3.60;99.90
60860;DHT22;46694;54.382;9.708;2023-03-01T09:09:31;3.70;99.90
60860;DHT22;46694;54.382;9.708;2023-03-01T09:12:10;3.70;99.90
60860;DHT22;46694;54.382;9.708;2023-03-01T09:14:50;3.80;99.90
60860;DHT22;46694;54.382;9.708;2023-03-01T09:17:30;3.80;99.90
60860;DHT22;46694;54.382;9.708;2023-03-01T09:20:10;3.90;99.90
60860;DHT22;46694;54.382;9.708;2023-03-01T09:22:49;3.90;99.90
60860;DHT22;46694;54.382;9.708;2023-03-01T09:25:29;3.90;99.90
60860;DHT22;46694;54.382;9.708;2023-03-01T09:28:08;3.90;99.90
60860;DHT22;46694;54.382;9.708;2023-03-01T09:30:49;3.90;99.90
60860;DHT22;46694;54.382;9.708;2023-03-01T09:33:31;3.90;99.90
60860;DHT22;46694;54.382;9.708;2023-03-01T09:36:14;3.90;99.90
60860;DHT22;46694;54.382;9.708;2023-03-01T09:38:57;4.00;99.90
60860;DHT22;46694;54.382;9.708;2023-03-01T09:41:54;4.00;99.90
60860;DHT22;46694;54.382;9.708;2023-03-01T09:44:59;4.10;99.90
60860;DHT22;46694;54.382;9.708;2023-03-01T09:47:42;4.20;99.90
60860;DHT22;46694;54.382;9.708;2023-03-01T09:50:22;4.20;99.90
60860;DHT22;46694;54.382;9.708;2023-03-01T09:53:06;4.30;99.90
60860;DHT22;46694;54.382;9.708;2023-03-01T09:56:04;4.40;99.90
60860;DHT22;46694;54.382;9.708;2023-03-01T09:58:59;4.60;99.90
60860;DHT22;46694;54.382;9.708;2023-03-01T10:02:21;4.70;99.90
60860;DHT22;46694;54.382;9.708;2023-03-01T10:08:59;4.80;99.90
60860;DHT22;46694;54.382;9.708;2023-03-01T10:11:50;5.10;99.90
60860;DHT22;46694;54.382;9.708;2023-03-01T10:17:51;5.30;99.90
60860;DHT22;46694;54.382;9.708;2023-03-01T10:20:53;5.30;99.90
60860;DHT22;46694;54.382;9.708;2023-03-01T10:23:35;5.40;99.90
60860;DHT22;46694;54.382;9.708;2023-03-01T10:29:08;5.50;99.90
60860;DHT22;46694;54.382;9.708;2023-03-01T10:31:50;5.50;99.90
60860;DHT22;46694;54.382;9.708;2023-03-01T10:34:34;5.60;99.90
60860;DHT22;46694;54.382;9.708;2023-03-01T10:37:17;5.50;99.90
60860;DHT22;46694;54.382;9.708;2023-03-01T10:42:48;5.60;99.90
60860;DHT22;46694;54.382;9.708;2023-03-01T10:45:40;5.70;99.90
60860;DHT22;46694;54.382;9.708;2023-03-01T10:48:21;5.70;99.90
60860;DHT22;46694;54.382;9.708;2023-03-01T10:51:07;5.80;99.90
60860;DHT22;46694;54.382;9.708;2023-03-01T10:53:50;5.80;99.90
60860;DHT22;46694;54.382;9.708;2023-03-01T10:56:49;5.80;99.90
60860;DHT22;46694;54.382;9.708;2023-03-01T10:59:35;5.80;99.90
60860;DHT22;46694;54.382;9.708;2023-03-01T11:07:57;6.20;99.90
60860;DHT22;46694;54.382;9.708;2023-03-01T11:10:37;6.30;99.90
60860;DHT22;46694;54.382;9.708;2023-03-01T11:13:18;6.40;99.90
60860;DHT22;46694;54.382;9.708;2023-03-01T11:16:06;6.40;99.90
60860;DHT22;46694;54.382;9.708;2023-03-01T11:18:56;6.50;99.90
60860;DHT22;46694;54.382;9.708;2023-03-01T11:24:59;6.50;99.90
60860;DHT22;46694;54.382;9.708;2023-03-01T11:27:43;6.50;99.90
60860;DHT22;46694;54.382;9.708;2023-03-01T11:31:13;6.50;99.90
60860;DHT22;46694;54.382;9.708;2023-03-01T11:37:16;6.60;99.90
60860;DHT22;46694;54.382;9.708;2023-03-01T11:43:23;6.60;99.90
60860;DHT22;46694;54.382;9.708;2023-03-01T11:49:38;6.50;99.90
60860;DHT22;46694;54.382;9.708;2023-03-01T11:52:46;6.60;99.90
60860;DHT22;46694;54.382;9.708;2023-03-01T11:59:41;7.00;99.90
60860;DHT22;46694;54.382;9.708;2023-03-01T12:02:20;7.20;99.90
60860;DHT22;46694;54.382;9.708;2023-03-01T12:08:42;7.30;99.90
60860;DHT22;46694;54.382;9.708;2023-03-01T12:21:18;7.30;99.90
60860;DHT22;46694;54.382;9.708;2023-03-01T12:33:26;7.60;99.90
60860;DHT22;46694;54.382;9.708;2023-03-01T12:36:14;7.70;99.90
60860;DHT22;46694;54.382;9.708;2023-03-01T12:51:30;7.20;99.90
60860;DHT22;46694;54.382;9.708;2023-03-01T12:54:16;7.20;99.90
60860;DHT22;46694;54.382;9.708;2023-03-01T12:57:07;7.20;99.90
60860;DHT22;46694;54.382;9.708;2023-03-01T13:06:21;7.10;99.90
60860;DHT22;46694;54.382;9.708;2023-03-01T13:15:33;7.00;99.90
60860;DHT22;46694;54.382;9.708;2023-03-01T13:20:57;7.30;99.90
60860;DHT22;46694;54.382;9.708;2023-03-01T13:23:39;7.40;99.90
60860;DHT22;46694;54.382;9.708;2023-03-01T13:26:18;7.40;99.90
60860;DHT22;46694;54.382;9.708;2023-03-01T13:28:58;7.40;99.90
60860;DHT22;46694;54.382;9.708;2023-03-01T13:34:42;7.30;99.90
60860;DHT22;46694;54.382;9.708;2023-03-01T13:37:29;7.20;99.90
60860;DHT22;46694;54.382;9.708;2023-03-01T13:42:56;7.20;99.90
60860;DHT22;46694;54.382;9.708;2023-03-01T13:45:40;7.10;99.90
60860;DHT22;46694;54.382;9.708;2023-03-01T13:48:29;7.10;99.90
60860;DHT22;46694;54.382;9.708;2023-03-01T13:51:11;7.10;99.90
60860;DHT22;46694;54.382;9.708;2023-03-01T13:53:52;7.10;99.90
60860;DHT22;46694;54.382;9.708;2023-03-01T13:56:39;7.10;99.90
60860;DHT22;46694;54.382;9.708;2023-03-01T13:59:21;7.10;99.90
60860;DHT22;46694;54.382;9.708;2023-03-01T14:02:01;7.10;99.90
60860;DHT22;46694;54.382;9.708;2023-03-01T14:04:41;7.10;99.90
60860;DHT22;46694;54.382;9.708;2023-03-01T14:07:22;7.00;99.90
60860;DHT22;46694;54.382;9.708;2023-03-01T14:10:12;7.00;99.90
60860;DHT22;46694;54.382;9.708;2023-03-01T14:16:27;6.80;99.90
60860;DHT22;46694;54.382;9.708;2023-03-01T14:22:24;6.40;99.90
60860;DHT22;46694;54.382;9.708;2023-03-01T14:25:31;6.30;99.90
60860;DHT22;46694;54.382;9.708;2023-03-01T14:28:31;6.20;99.90
60860;DHT22;46694;54.382;9.708;2023-03-01T14:34:23;6.10;99.90
60860;DHT22;46694;54.382;9.708;2023-03-01T14:37:11;6.00;99.90
60860;DHT22;46694;54.382;9.708;2023-03-01T14:40:01;6.00;99.90
60860;DHT22;46694;54.382;9.708;2023-03-01T14:42:43;6.00;99.90
60860;DHT22;46694;54.382;9.708;2023-03-01T14:45:27;5.80;99.90
60860;DHT22;46694;54.382;9.708;2023-03-01T14:48:08;5.70;99.90
60860;DHT22;46694;54.382;9.708;2023-03-01T14:50:48;5.70;99.90
60860;DHT22;46694;54.382;9.708;2023-03-01T14:53:29;5.60;99.90
60860;DHT22;46694;54.382;9.708;2023-03-01T14:56:14;5.70;99.90
60860;DHT22;46694;54.382;9.708;2023-03-01T14:58:58;5.60;99.90
60860;DHT22;46694;54.382;9.708;2023-03-01T15:01:40;5.60;99.90
60860;DHT22;46694;54.382;9.708;2023-03-01T15:04:21;5.60;99.90
60860;DHT22;46694;54.382;9.708;2023-03-01T15:07:01;5.50;99.90
60860;DHT22;46694;54.382;9.708;2023-03-01T15:09:44;5.50;99.90
60860;DHT22;46694;54.382;9.708;2023-03-01T15:15:45;5.40;99.90
60860;DHT22;46694;54.382;9.708;2023-03-01T15:18:27;5.40;99.90
60860;DHT22;46694;54.382;9.708;2023-03-01T15:21:37;5.30;99.90
60860;DHT22;46694;54.382;9.708;2023-03-01T15:24:23;5.20;99.90
60860;DHT22;46694;54.382;9.708;2023-03-01T15:27:03;5.20;99.90
60860;DHT22;46694;54.382;9.708;2023-03-01T15:29:53;5.20;99.90
60860;DHT22;46694;54.382;9.708;2023-03-01T15:32:36;5.30;99.90
60860;DHT22;46694;54.382;9.708;2023-03-01T15:35:43;5.30;99.90
60860;DHT22;46694;54.382;9.708;2023-03-01T15:41:28;5.20;99.90
60860;DHT22;46694;54.382;9.708;2023-03-01T15:44:32;5.10;99.90
60860;DHT22;46694;54.382;9.708;2023-03-01T15:47:28;5.10;99.90
60860;DHT22;46694;54.382;9.708;2023-03-01T15:50:19;5.00;99.90
60860;DHT22;46694;54.382;9.708;2023-03-01T15:53:03;5.00;99.90
60860;DHT22;46694;54.382;9.708;2023-03-01T15:55:45;5.00;99.90
60860;DHT22;46694;54.382;9.708;2023-03-01T15:58:28;4.90;99.90
60860;DHT22;46694;54.382;9.708;2023-03-01T16:01:15;4.90;99.90
60860;DHT22;46694;54.382;9.708;2023-03-01T16:03:56;4.90;99.90
60860;DHT22;46694;54.382;9.708;2023-03-01T16:06:37;4.80;99.90
60860;DHT22;46694;54.382;9.708;2023-03-01T16:09:18;4.80;99.90
60860;DHT22;46694;54.382;9.708;2023-03-01T16:11:58;5.00;99.90
60860;DHT22;46694;54.382;9.708;2023-03-01T16:14:56;5.00;99.90
60860;DHT22;46694;54.382;9.708;2023-03-01T16:17:36;5.00;99.90
60860;DHT22;46694;54.382;9.708;2023-03-01T16:20:16;5.00;99.90
60860;DHT22;46694;54.382;9.708;2023-03-01T16:23:01;5.00;99.90
60860;DHT22;46694;54.382;9.708;2023-03-01T16:25:41;4.90;99.90
60860;DHT22;46694;54.382;9.708;2023-03-01T16:28:21;4.90;99.90
60860;DHT22;46694;54.382;9.708;2023-03-01T16:31:01;4.90;99.90
60860;DHT22;46694;54.382;9.708;2023-03-01T16:33:40;5.00;99.90
60860;DHT22;46694;54.382;9.708;2023-03-01T16:36:20;4.90;99.90
60860;DHT22;46694;54.382;9.708;2023-03-01T16:39:03;4.90;99.90
60860;DHT22;46694;54.382;9.708;2023-03-01T16:41:43;4.90;99.90
60860;DHT22;46694;54.382;9.708;2023-03-01T16:44:22;4.90;99.90
60860;DHT22;46694;54.382;9.708;2023-03-01T16:47:02;4.90;99.90
60860;DHT22;46694;54.382;9.708;2023-03-01T16:49:41;4.90;99.90
60860;DHT22;46694;54.382;9.708;2023-03-01T16:52:22;4.90;99.90
60860;DHT22;46694;54.382;9.708;2023-03-01T16:55:05;4.90;99.90
60860;DHT22;46694;54.382;9.708;2023-03-01T16:57:46;4.90;99.90
60860;DHT22;46694;54.382;9.708;2023-03-01T17:00:26;4.90;99.90
60860;DHT22;46694;54.382;9.708;2023-03-01T17:03:05;4.90;99.90
60860;DHT22;46694;54.382;9.708;2023-03-01T17:05:45;4.80;99.90
60860;DHT22;46694;54.382;9.708;2023-03-01T17:08:24;4.80;99.90
60860;DHT22;46694;54.382;9.708;2023-03-01T17:11:13;4.80;99.90
60860;DHT22;46694;54.382;9.708;2023-03-01T17:13:56;4.80;99.90
60860;DHT22;46694;54.382;9.708;2023-03-01T17:16:36;4.80;99.90
60860;DHT22;46694;54.382;9.708;2023-03-01T17:19:16;4.80;99.90
60860;DHT22;46694;54.382;9.708;2023-03-01T17:21:56;4.80;99.90
60860;DHT22;46694;54.382;9.708;2023-03-01T17:24:38;4.80;99.90
60860;DHT22;46694;54.382;9.708;2023-03-01T17:27:18;4.80;99.90
60860;DHT22;46694;54.382;9.708;2023-03-01T17:29:58;4.70;99.90
60860;DHT22;46694;54.382;9.708;2023-03-01T17:32:38;4.70;99.90
60860;DHT22;46694;54.382;9.708;2023-03-01T17:35:17;4.70;99.90
60860;DHT22;46694;54.382;9.708;2023-03-01T17:37:57;4.60;99.90
60860;DHT22;46694;54.382;9.708;2023-03-01T17:40:36;4.60;99.90
60860;DHT22;46694;54.382;9.708;2023-03-01T17:43:18;4.60;99.90
60860;DHT22;46694;54.382;9.708;2023-03-01T17:45:58;4.60;99.90
60860;DHT22;46694;54.382;9.708;2023-03-01T17:48:38;4.60;99.90
60860;DHT22;46694;54.382;9.708;2023-03-01T17:51:18;4.50;99.90
60860;DHT22;46694;54.382;9.708;2023-03-01T17:53:57;4.50;99.90
60860;DHT22;46694;54.382;9.708;2023-03-01T17:56:37;4.50;99.90
60860;DHT22;46694;54.382;9.708;2023-03-01T17:59:17;4.50;99.90
60860;DHT22;46694;54.382;9.708;2023-03-01T18:01:57;4.50;99.90
60860;DHT22;46694;54.382;9.708;2023-03-01T18:04:39;4.50;99.90
60860;DHT22;46694;54.382;9.708;2023-03-01T18:07:18;4.50;99.90
60860;DHT22;46694;54.382;9.708;2023-03-01T18:09:58;4.40;99.90
60860;DHT22;46694;54.382;9.708;2023-03-01T18:12:37;4.40;99.90
60860;DHT22;46694;54.382;9.708;2023-03-01T18:15:17;4.40;99.90
60860;DHT22;46694;54.382;9.708;2023-03-01T18:17:57;4.30;99.90
60860;DHT22;46694;54.382;9.708;2023-03-01T18:20:37;4.30;99.90
60860;DHT22;46694;54.382;9.708;2023-03-01T18:23:17;4.30;99.90
60860;DHT22;46694;54.382;9.708;2023-03-01T18:26:02;4.30;99.90
60860;DHT22;46694;54.382;9.708;2023-03-01T18:28:46;4.20;99.90
60860;DHT22;46694;54.382;9.708;2023-03-01T18:31:45;4.20;99.90
60860;DHT22;46694;54.382;9.708;2023-03-01T18:34:25;4.20;99.90
60860;DHT22;46694;54.382;9.708;2023-03-01T18:37:07;4.10;99.90
60860;DHT22;46694;54.382;9.708;2023-03-01T18:39:50;4.20;99.90
60860;DHT22;46694;54.382;9.708;2023-03-01T18:42:30;4.10;99.90
60860;DHT22;46694;54.382;9.708;2023-03-01T18:45:10;4.10;99.90
60860;DHT22;46694;54.382;9.708;2023-03-01T18:47:51;4.10;99.90
60860;DHT22;46694;54.382;9.708;2023-03-01T18:50:56;4.10;99.90
60860;DHT22;46694;54.382;9.708;2023-03-01T18:53:36;4.10;99.90
60860;DHT22;46694;54.382;9.708;2023-03-01T18:56:16;4.10;99.90
60860;DHT22;46694;54.382;9.708;2023-03-01T18:59:04;4.00;99.90
60860;DHT22;46694;54.382;9.708;2023-03-01T19:01:44;4.00;99.90
60860;DHT22;46694;54.382;9.708;2023-03-01T19:04:23;4.00;99.90
60860;DHT22;46694;54.382;9.708;2023-03-01T19:07:03;3.90;99.90
60860;DHT22;46694;54.382;9.708;2023-03-01T19:09:42;3.90;99.90
60860;DHT22;46694;54.382;9.708;2023-03-01T19:12:22;4.00;99.90
60860;DHT22;46694;54.382;9.708;2023-03-01T19:15:03;4.00;99.90
60860;DHT22;46694;54.382;9.708;2023-03-01T19:17:43;4.00;99.90
60860;DHT22;46694;54.382;9.708;2023-03-01T19:20:23;3.90;99.90
60860;DHT22;46694;54.382;9.708;2023-03-01T19:23:02;4.00;99.90